No particular awareness of the weather is required.    There are no Weather-warnings


Meteo18 Weather Cam more information Meteo18 Weather Cam


Thunder radar more information blitzortung!


Rain radar more information rain snow radar


Visit our other weather sites:

Template documentation
and downloads

And another site



Weather Underground History page Text

Daily Summary for May 16, 2017 Units:  English    Metric   Both
« Previous Day
Next Day »
Daily Weekly Monthly Yearly Custom
  High: Low: Average:
Temperature: 81.5 °F 52.5 °F 66.7 °F
Dew Point: 58.8 °F 49.6 °F 54.5 °F
Humidity: 91 % 41 % 68 %
Wind Speed: 5 mph 0 mph 0.9 mph
Wind Gust: 9 mph - -
Wind:- - ESE
Pressure: 30.4 in 30.3 in -
Precipitation: 0 in    
Historical Graphs
 
 
Tabular Data for May 16, 2017
Time Temperature Dew Point Pressure Wind Wind Speed Wind Gust Humidity Rainfall Rate (Hourly)
00:07 59.5 °F 52.7 °F 30.4 in NW 1 mph 2 mph 78 % 0 in
00:12 59.2 °F 52.3 °F 30.4 in Calm   2 mph 78 % 0 in
00:17 58.6 °F 52.2 °F 30.4 in Calm   2 mph 79 % 0 in
00:27 57.7 °F 52.3 °F 30.4 in Calm   1 mph 82 % 0 in
00:32 57.9 °F 52.2 °F 30.4 in Calm   1 mph 81 % 0 in
00:37 57.9 °F 52.2 °F 30.4 in Calm   1 mph 81 % 0 in
00:42 57.4 °F 52 °F 30.4 in Calm   1 mph 82 % 0 in
00:52 57 °F 52.2 °F 30.4 in WNW 1 mph 2 mph 84 % 0 in
00:57 57.2 °F 52.2 °F 30.4 in WNW 1 mph 2 mph 83 % 0 in
01:02 57.6 °F 52.2 °F 30.4 in Calm   2 mph 82 % 0 in
01:07 57.9 °F 52.2 °F 30.4 in Calm   2 mph 81 % 0 in
01:12 58.3 °F 52.2 °F 30.4 in Calm   1 mph 80 % 0 in
01:22 57.9 °F 51.8 °F 30.4 in Calm     80 % 0 in
01:27 57.6 °F 51.4 °F 30.4 in Calm     80 % 0 in
01:32 57.4 °F 51.6 °F 30.4 in Calm     81 % 0 in
01:42 57.2 °F 51.4 °F 30.4 in Calm     81 % 0 in
01:47 57 °F 51.3 °F 30.4 in Calm     81 % 0 in
01:52 56.8 °F 51.4 °F 30.4 in Calm     82 % 0 in
01:57 56.5 °F 51.4 °F 30.4 in Calm     83 % 0 in
02:02 55.9 °F 51.4 °F 30.4 in Calm     85 % 0 in
02:12 55.8 °F 51.3 °F 30.4 in Calm     85 % 0 in
02:17 55.9 °F 51.4 °F 30.4 in Calm     85 % 0 in
02:22 55.6 °F 51.1 °F 30.4 in Calm     85 % 0 in
02:32 54.9 °F 51.1 °F 30.4 in Calm     87 % 0 in
02:37 54.9 °F 51.4 °F 30.4 in Calm     88 % 0 in
02:42 55.2 °F 51.1 °F 30.4 in Calm     86 % 0 in
02:47 55 °F 51.3 °F 30.4 in Calm     87 % 0 in
02:52 55.2 °F 51.4 °F 30.4 in Calm     87 % 0 in
02:57 55.9 °F 51.4 °F 30.4 in Calm     85 % 0 in
03:02 56.1 °F 51.4 °F 30.4 in Calm     84 % 0 in
03:12 55.8 °F 50.7 °F 30.4 in Calm     83 % 0 in
03:17 55.6 °F 50.9 °F 30.4 in Calm     84 % 0 in
03:22 55.6 °F 50.9 °F 30.4 in Calm     84 % 0 in
03:32 55.4 °F 50.7 °F 30.4 in Calm     84 % 0 in
03:37 55.4 °F 50.9 °F 30.4 in Calm     85 % 0 in
03:42 55.8 °F 51.1 °F 30.4 in Calm     84 % 0 in
03:47 55.9 °F 50.9 °F 30.4 in Calm     83 % 0 in
03:52 55.6 °F 50.5 °F 30.4 in Calm     83 % 0 in
03:57 55.4 °F 50.9 °F 30.4 in Calm     85 % 0 in
04:02 55.8 °F 51.3 °F 30.4 in Calm     85 % 0 in
04:07 55.8 °F 50.7 °F 30.4 in Calm     83 % 0 in
04:12 55.4 °F 50.4 °F 30.4 in Calm     83 % 0 in
04:17 54.9 °F 50.2 °F 30.4 in Calm     84 % 0 in
04:22 54.5 °F 50 °F 30.4 in Calm     85 % 0 in
04:32 54.7 °F 50.5 °F 30.4 in Calm     86 % 0 in
04:37 54.7 °F 50.5 °F 30.4 in Calm     86 % 0 in
04:42 54.3 °F 49.8 °F 30.4 in Calm     85 % 0 in
04:47 54 °F 50.5 °F 30.4 in Calm     88 % 0 in
04:52 54 °F 50.5 °F 30.4 in Calm     88 % 0 in
04:57 54 °F 50.2 °F 30.4 in Calm     87 % 0 in
05:02 53.6 °F 49.8 °F 30.4 in Calm     87 % 0 in
05:12 53.1 °F 49.8 °F 30.4 in Calm     89 % 0 in
05:17 53.2 °F 50.4 °F 30.4 in Calm     90 % 0 in
05:22 53.2 °F 50 °F 30.4 in Calm     89 % 0 in
05:27 53.1 °F 50.2 °F 30.4 in Calm     90 % 0 in
05:32 52.9 °F 50 °F 30.4 in Calm     90 % 0 in
05:42 53.2 °F 50 °F 30.4 in Calm     89 % 0 in
05:47 53.1 °F 50.2 °F 30.4 in Calm     90 % 0 in
05:52 53.1 °F 50.2 °F 30.4 in Calm     90 % 0 in
05:57 52.9 °F 50 °F 30.4 in Calm     90 % 0 in
06:02 52.5 °F 49.6 °F 30.4 in Calm     90 % 0 in
06:07 52.7 °F 50.2 °F 30.4 in Calm     91 % 0 in
06:12 52.9 °F 50.4 °F 30.4 in Calm     91 % 0 in
06:17 53.1 °F 50.5 °F 30.4 in Calm     91 % 0 in
06:22 53.2 °F 50.4 °F 30.4 in Calm     90 % 0 in
06:27 53.2 °F 50.4 °F 30.4 in Calm     90 % 0 in
06:32 53.2 °F 50.4 °F 30.4 in Calm     90 % 0 in
06:37 53.8 °F 50.9 °F 30.4 in Calm     90 % 0 in
06:42 54 °F 51.1 °F 30.4 in Calm     90 % 0 in
06:47 54.3 °F 51.1 °F 30.4 in Calm     89 % 0 in
06:52 54.9 °F 51.4 °F 30.4 in Calm     88 % 0 in
06:57 55.6 °F 52.2 °F 30.4 in Calm     88 % 0 in
07:02 55.6 °F 51.8 °F 30.4 in Calm     87 % 0 in
07:12 55.2 °F 51.8 °F 30.4 in Calm     88 % 0 in
07:17 55 °F 51.6 °F 30.4 in Calm     88 % 0 in
07:27 54.9 °F 51.6 °F 30.4 in Calm     89 % 0 in
07:32 54.9 °F 51.6 °F 30.4 in Calm     89 % 0 in
07:42 55.4 °F 52.2 °F 30.4 in Calm     89 % 0 in
07:47 55.6 °F 52.2 °F 30.4 in Calm     88 % 0 in
07:52 55.8 °F 52.3 °F 30.4 in Calm     88 % 0 in
07:57 55.9 °F 52.5 °F 30.4 in Calm     88 % 0 in
08:02 56.1 °F 52.9 °F 30.4 in Calm     89 % 0 in
08:12 56.7 °F 53.4 °F 30.4 in Calm     89 % 0 in
08:17 56.8 °F 53.6 °F 30.4 in Calm     89 % 0 in
08:22 57 °F 53.8 °F 30.4 in Calm     89 % 0 in
08:32 57.9 °F 54.7 °F 30.4 in Calm     89 % 0 in
08:37 58.6 °F 55.4 °F 30.4 in Calm     89 % 0 in
08:42 59 °F 55.8 °F 30.4 in Calm     89 % 0 in
08:52 60.3 °F 57.4 °F 30.4 in Calm     90 % 0 in
08:57 61 °F 58.1 °F 30.4 in Calm     90 % 0 in
09:02 61.3 °F 57.7 °F 30.4 in Calm     88 % 0 in
09:07 61.3 °F 56.1 °F 30.4 in Calm     83 % 0 in
09:12 61.5 °F 54.7 °F 30.4 in Calm     78 % 0 in
09:17 62.4 °F 55 °F 30.4 in Calm     77 % 0 in
09:27 63.5 °F 55 °F 30.4 in Calm     74 % 0 in
09:32 64 °F 55.9 °F 30.4 in Calm     75 % 0 in
09:42 64.2 °F 56.1 °F 30.4 in Calm     75 % 0 in
09:47 64.4 °F 56.3 °F 30.4 in Calm     75 % 0 in
09:52 64.2 °F 55.8 °F 30.4 in Calm     74 % 0 in
09:57 64 °F 55.6 °F 30.4 in South 1 mph   74 % 0 in
10:02 64.6 °F 56.8 °F 30.4 in Calm   2 mph 76 % 0 in
10:12 66 °F 57.2 °F 30.4 in Calm   2 mph 73 % 0 in
10:17 66.6 °F 56.1 °F 30.4 in South 1 mph 2 mph 69 % 0 in
10:22 67.3 °F 56.8 °F 30.4 in South 2 mph 2 mph 69 % 0 in
10:32 67.8 °F 56.5 °F 30.4 in South 1 mph 2 mph 67 % 0 in
10:42 68.5 °F 55.9 °F 30.4 in Calm   2 mph 64 % 0 in
10:47 68.5 °F 56.7 °F 30.4 in South 1 mph 2 mph 66 % 0 in
10:57 69.3 °F 55.2 °F 30.4 in SSW 2 mph 3 mph 61 % 0 in
11:02 70 °F 55.9 °F 30.4 in SW 1 mph 3 mph 61 % 0 in
11:12 70.7 °F 56.1 °F 30.4 in Calm   3 mph 60 % 0 in
11:17 71.2 °F 55.8 °F 30.4 in Calm   3 mph 58 % 0 in
11:22 71.4 °F 55.4 °F 30.4 in SSE 3 mph 3 mph 57 % 0 in
11:27 71.8 °F 55.8 °F 30.4 in Calm   4 mph 57 % 0 in
11:32 72.3 °F 55.8 °F 30.4 in South 1 mph 5 mph 56 % 0 in
11:37 72.1 °F 56.1 °F 30.4 in Calm   5 mph 57 % 0 in
11:42 72.7 °F 56.5 °F 30.4 in SSE 1 mph 5 mph 57 % 0 in
11:52 72.7 °F 55.6 °F 30.4 in SSE 3 mph 4 mph 55 % 0 in
12:02 73 °F 55.4 °F 30.4 in SE 1 mph 4 mph 54 % 0 in
12:12 73 °F 54.9 °F 30.4 in SE 2 mph 4 mph 53 % 0 in
12:22 73.2 °F 55 °F 30.4 in ESE 2 mph 5 mph 53 % 0 in
12:27 73.2 °F 54.5 °F 30.4 in SE 2 mph 5 mph 52 % 0 in
12:32 73.2 °F 54.5 °F 30.4 in Calm   5 mph 52 % 0 in
12:37 74.3 °F 57.6 °F 30.4 in SE 3 mph 5 mph 56 % 0 in
12:42 74.1 °F 55.9 °F 30.4 in East 5 mph 5 mph 53 % 0 in
12:47 73.9 °F 55.2 °F 30.4 in East 2 mph 9 mph 52 % 0 in
12:52 73.9 °F 55.2 °F 30.4 in East 3 mph 9 mph 52 % 0 in
12:57 73.9 °F 55.8 °F 30.4 in East 3 mph 9 mph 53 % 0 in
13:02 73 °F 54.9 °F 30.4 in ESE 2 mph 7 mph 53 % 0 in
13:12 73.4 °F 56.7 °F 30.4 in ESE 1 mph 7 mph 56 % 0 in
13:17 73.2 °F 55 °F 30.4 in East 3 mph 6 mph 53 % 0 in
13:22 73.2 °F 55.6 °F 30.4 in East 2 mph 6 mph 54 % 0 in
13:32 73.8 °F 56.1 °F 30.4 in East 2 mph 6 mph 54 % 0 in
13:37 74.8 °F 56.5 °F 30.3 in ESE 5 mph 6 mph 53 % 0 in
13:42 75.2 °F 56.8 °F 30.3 in East 3 mph 7 mph 53 % 0 in
13:52 75 °F 57.2 °F 30.3 in ENE 4 mph 7 mph 54 % 0 in
13:57 75.4 °F 57 °F 30.3 in North 3 mph 6 mph 53 % 0 in
14:02 75.9 °F 56.5 °F 30.3 in Calm   6 mph 51 % 0 in
14:12 76.5 °F 57 °F 30.3 in NNE 3 mph 7 mph 51 % 0 in
14:17 75.7 °F 56.3 °F 30.3 in NNE 2 mph 7 mph 51 % 0 in
14:22 76.1 °F 56.7 °F 30.3 in Calm   8 mph 51 % 0 in
14:27 76.3 °F 56.8 °F 30.3 in Calm   8 mph 51 % 0 in
14:32 77.4 °F 57.7 °F 30.3 in ESE 2 mph 8 mph 51 % 0 in
14:42 77.7 °F 57.6 °F 30.3 in ESE 4 mph 9 mph 50 % 0 in
14:47 77.9 °F 57.2 °F 30.3 in SE 4 mph 9 mph 49 % 0 in
14:52 78.1 °F 57.4 °F 30.3 in SW 3 mph 9 mph 49 % 0 in
14:57 78.3 °F 57.6 °F 30.3 in SSW 4 mph 9 mph 49 % 0 in
15:02 78.4 °F 57.2 °F 30.3 in SSW 4 mph 9 mph 48 % 0 in
15:07 78.6 °F 57.2 °F 30.3 in WSW 2 mph 9 mph 48 % 0 in
15:12 78.4 °F 55.4 °F 30.3 in Calm   9 mph 45 % 0 in
15:17 79 °F 56.5 °F 30.3 in SSW 2 mph 6 mph 46 % 0 in
15:22 79 °F 57 °F 30.3 in SSW 3 mph 6 mph 47 % 0 in
15:32 78.8 °F 56.3 °F 30.3 in Calm   6 mph 46 % 0 in
15:37 78.3 °F 56.3 °F 30.3 in ESE 4 mph 5 mph 47 % 0 in
15:42 78.8 °F 56.3 °F 30.3 in South 1 mph 5 mph 46 % 0 in
15:47 79.2 °F 57.2 °F 30.3 in ESE 2 mph 5 mph 47 % 0 in
15:52 79 °F 55.8 °F 30.3 in East 1 mph 5 mph 45 % 0 in
16:02 79.3 °F 55.6 °F 30.3 in ENE 1 mph 4 mph 44 % 0 in
16:12 78.4 °F 55.4 °F 30.3 in WSW 2 mph 5 mph 45 % 0 in
16:17 78.1 °F 55.6 °F 30.3 in Calm   5 mph 46 % 0 in
16:22 78.6 °F 56.7 °F 30.3 in Calm   6 mph 47 % 0 in
16:27 79.3 °F 56.8 °F 30.3 in Calm   6 mph 46 % 0 in
16:32 79.3 °F 56.8 °F 30.3 in SSE 4 mph 4 mph 46 % 0 in
16:37 79.3 °F 56.1 °F 30.3 in SE 2 mph 4 mph 45 % 0 in
16:42 79.5 °F 56.8 °F 30.3 in East 1 mph 4 mph 46 % 0 in
16:47 79.9 °F 55.9 °F 30.3 in Calm   4 mph 44 % 0 in
16:57 80.1 °F 56.8 °F 30.3 in Calm   3 mph 45 % 0 in
17:02 79.3 °F 54.9 °F 30.3 in NNE 1 mph 2 mph 43 % 0 in
17:12 79.5 °F 56.3 °F 30.3 in Calm   3 mph 45 % 0 in
17:17 79.2 °F 56.7 °F 30.3 in East 3 mph 3 mph 46 % 0 in
17:22 79.2 °F 56.7 °F 30.3 in Calm   4 mph 46 % 0 in
17:27 80.2 °F 56.3 °F 30.3 in NNE 2 mph 4 mph 44 % 0 in
17:32 79.9 °F 55.9 °F 30.3 in Calm   4 mph 44 % 0 in
17:42 79.9 °F 55.4 °F 30.3 in NNE 2 mph 3 mph 43 % 0 in
17:47 79.9 °F 55.9 °F 30.3 in Calm   3 mph 44 % 0 in
17:52 80.1 °F 56.1 °F 30.3 in Calm   2 mph 44 % 0 in
17:57 81.5 °F 56.8 °F 30.3 in Calm   2 mph 43 % 0 in
18:02 81.1 °F 57.2 °F 30.3 in Calm   3 mph 44 % 0 in
18:12 80.4 °F 58.3 °F 30.3 in NE 3 mph 3 mph 47 % 0 in
18:17 79.3 °F 56.1 °F 30.3 in ENE 1 mph 3 mph 45 % 0 in
18:22 80.1 °F 56.1 °F 30.3 in Calm   5 mph 44 % 0 in
18:27 80.4 °F 54.5 °F 30.3 in Calm   5 mph 41 % 0 in
18:32 80.8 °F 56.1 °F 30.3 in Calm   5 mph 43 % 0 in
18:37 79.9 °F 55.9 °F 30.3 in East 1 mph 2 mph 44 % 0 in
18:42 80.1 °F 56.1 °F 30.3 in Calm   4 mph 44 % 0 in
18:52 79.3 °F 57.4 °F 30.3 in Calm   4 mph 47 % 0 in
18:57 79 °F 55.8 °F 30.3 in ENE 2 mph 4 mph 45 % 0 in
19:02 78.3 °F 55.8 °F 30.3 in NE 2 mph 4 mph 46 % 0 in
19:07 77.7 °F 55.2 °F 30.3 in ENE 2 mph 5 mph 46 % 0 in
19:12 77.4 °F 55 °F 30.3 in ENE 2 mph 5 mph 46 % 0 in
19:17 77.5 °F 55.8 °F 30.3 in Calm   4 mph 47 % 0 in
19:22 77.7 °F 56.5 °F 30.3 in ENE 1 mph 3 mph 48 % 0 in
19:32 77.9 °F 57.7 °F 30.3 in Calm   3 mph 50 % 0 in
19:42 77.7 °F 58.1 °F 30.3 in NNE 2 mph 3 mph 51 % 0 in
19:47 77.5 °F 57.9 °F 30.3 in NE 3 mph 6 mph 51 % 0 in
19:52 77.4 °F 58.8 °F 30.3 in ENE 3 mph 6 mph 53 % 0 in
19:57 77.2 °F 58.3 °F 30.3 in NE 3 mph 5 mph 52 % 0 in
20:02 77.2 °F 57.7 °F 30.3 in NE 2 mph 5 mph 51 % 0 in
20:07 77 °F 57.6 °F 30.3 in NE 2 mph 5 mph 51 % 0 in
20:12 77 °F 58.1 °F 30.3 in NE 3 mph 5 mph 52 % 0 in
20:17 76.8 °F 58.5 °F 30.3 in NE 2 mph 5 mph 53 % 0 in
20:22 76.5 °F 58.6 °F 30.3 in NE 2 mph 4 mph 54 % 0 in
20:27 76.1 °F 58.8 °F 30.3 in NE 2 mph 4 mph 55 % 0 in
20:32 75.6 °F 58.8 °F 30.3 in ENE 2 mph 4 mph 56 % 0 in
20:37 74.8 °F 58.6 °F 30.3 in NE 2 mph 4 mph 57 % 0 in
20:42 74.5 °F 58.3 °F 30.3 in NE 2 mph 4 mph 57 % 0 in
20:47 73.9 °F 57.7 °F 30.3 in NE 2 mph 4 mph 57 % 0 in
20:57 73.6 °F 57.4 °F 30.3 in NNE 3 mph 4 mph 57 % 0 in
21:02 73.2 °F 57.6 °F 30.3 in NE 2 mph 4 mph 58 % 0 in
21:12 72.5 °F 57.4 °F 30.3 in NE 3 mph 4 mph 59 % 0 in
21:17 72.1 °F 57 °F 30.3 in NE 3 mph 4 mph 59 % 0 in
21:22 72 °F 56.8 °F 30.3 in NE 3 mph 4 mph 59 % 0 in
21:27 71.8 °F 57.2 °F 30.3 in NNE 3 mph 4 mph 60 % 0 in
21:32 71.1 °F 56.8 °F 30.3 in Calm   4 mph 61 % 0 in
21:37 70.3 °F 57.2 °F 30.3 in North 1 mph 4 mph 63 % 0 in
21:42 69.8 °F 57 °F 30.3 in Calm   3 mph 64 % 0 in
21:47 69.4 °F 57.2 °F 30.3 in North 1 mph 2 mph 65 % 0 in
21:52 69.1 °F 57.2 °F 30.3 in NNW 1 mph 2 mph 66 % 0 in
21:57 68.7 °F 56.8 °F 30.3 in Calm   2 mph 66 % 0 in
22:02 68.2 °F 56.8 °F 30.3 in Calm   1 mph 67 % 0 in
22:12 67.6 °F 56.3 °F 30.3 in Calm   1 mph 67 % 0 in
22:17 67.6 °F 56.3 °F 30.3 in Calm     67 % 0 in
22:22 67.3 °F 56.3 °F 30.3 in Calm     68 % 0 in
22:27 66.7 °F 56.3 °F 30.3 in NNE 1 mph   69 % 0 in
22:32 66.4 °F 55.9 °F 30.3 in NE 4 mph 4 mph 69 % 0 in
22:37 66.9 °F 55.9 °F 30.3 in NE 4 mph 5 mph 68 % 0 in
22:42 67.3 °F 55.9 °F 30.3 in NE 5 mph 5 mph 67 % 0 in
22:47 67.3 °F 55.9 °F 30.3 in NNE 5 mph 5 mph 67 % 0 in
22:52 67.5 °F 55.8 °F 30.3 in NE 3 mph 6 mph 66 % 0 in
22:57 67.1 °F 55.8 °F 30.3 in NNE 1 mph 6 mph 67 % 0 in
23:02 66.2 °F 55.4 °F 30.3 in WNW 3 mph 6 mph 68 % 0 in
23:12 63.1 °F 55.4 °F 30.3 in WNW 2 mph 3 mph 76 % 0 in
23:17 63.5 °F 55.8 °F 30.3 in Calm   3 mph 76 % 0 in
23:22 64 °F 55.6 °F 30.3 in WNW 1 mph 3 mph 74 % 0 in
23:27 63.3 °F 55.6 °F 30.3 in WNW 1 mph 2 mph 76 % 0 in
23:32 63 °F 55.6 °F 30.3 in Calm   2 mph 77 % 0 in
23:37 63.5 °F 55.4 °F 30.3 in NNW 1 mph 2 mph 75 % 0 in
23:42 64 °F 55.6 °F 30.3 in Calm   2 mph 74 % 0 in
23:47 63.9 °F 55.4 °F 30.3 in Calm   2 mph 74 % 0 in
23:52 63.7 °F 55.2 °F 30.3 in Calm   2 mph 74 % 0 in
23:57 63.7 °F 55.2 °F 30.3 in Calm   2 mph 74 % 0 in
Meteo18
Compliments of Weather Underground - 4 mb

Script developed by  Jim McMurry - jmcmurry@mwt.net Adapted for the template by  Wim van der Kuil - Leuven-Template.eu

You find our weather info also at:

European Weather Network

Weather Underground

Equipment we use:

Weather-station
Davis Vue

Weather-program
Meteohub

Weather-server
Raspberry PI 2 B+

Provider
1 and 1

Davis Vue

Meteohub

Raspberry PI 2 B+

1 and 1